CheckWX is a tool to help pilots better visualize weather data.  It is not intended as a substitute for an official pre-flight weather briefing.

21:55:10 UTC

DABS TAF
Cheikh Larbi Tébessi Airport
Tébessi, Algeria
TAF DABS 112300Z 1200/1224 12008KT 9999 FEW040 TEMPO 1212/1220 02010KT FEW026CB PROB30 TEMPO 1114/1119 5000 -TSRA

Jul-11@
14:00 UTC

Jul-11 @ 14:00 UTC

Jul-11@
19:00 UTC

Jul-11 @ 19:00 UTC

PROB30 TEMPO 1114/1119 5000 -TSRA

Expired

Conditions
Light Thunderstorm, Rain
Cloud Levels

Jul-12@
00:00 UTC

Jul-12 @ 00:00 UTC

Jul-13@
00:00 UTC

Jul-13 @ 00:00 UTC

TAF DABS 112300Z 1200/1224 12008KT 9999 FEW040
Wind
  • 120° at 8 KTS
Cloud Levels
  • Few at 4,000' AGL

Jul-12@
12:00 UTC

Jul-12 @ 12:00 UTC

Jul-12@
20:00 UTC

Jul-12 @ 20:00 UTC

TEMPO 1212/1220 02010KT FEW026CB

Expired

Wind
  • 020° at 10 KTS
Cloud Levels
  • Few at 2,600' AGL